Time;durP1;ratioP1;P1;durP2;ratioP2;P2;SDS_P1;SDS_P2;PMS_P1;PMS_P2;Temp;Humidity;BMP_temperature;BMP_pressure;BME280_temperature;BME280_humidity;BME280_pressure;Samples;Min_cycle;Max_cycle;Signal;HPM_P1;HPM_P2
2021/04/07 00:00:46;;;;;;;12.43;2.40;;;;;;;-144.99;91.10;52358.41;5113948;28;20728;-77
2021/04/07 00:03:32;;;;;;;7.47;2.13;;;;;;;-144.99;91.09;52386.94;5110568;28;20220;-78
2021/04/07 00:05:58;;;;;;;3.70;1.43;;;;;;;-144.99;91.14;52388.97;5102847;28;20656;-75
2021/04/07 00:08:26;;;;;;;16.93;3.97;;;;;;;-144.99;91.35;52399.19;5108261;28;20192;-77
2021/04/07 00:10:53;;;;;;;8.47;3.07;;;;;;;-144.99;91.31;52374.72;5115201;28;20226;-79
2021/04/07 00:13:20;;;;;;;7.27;2.17;;;;;;;-144.99;91.75;52374.72;5105522;28;20645;-76
2021/04/07 00:15:46;;;;;;;10.55;1.85;;;;;;;-144.99;91.70;52354.34;5140001;22;21010;-69
2021/04/07 00:18:12;;;;;;;14.50;2.47;;;;;;;-144.99;91.83;52319.69;5062359;28;20762;-73
2021/04/07 00:20:39;;;;;;;14.27;2.73;;;;;;;-144.99;92.11;52382.88;5066008;28;20764;-72
2021/04/07 00:23:06;;;;;;;3.97;2.10;;;;;;;-144.99;92.12;52399.19;5069468;28;20875;-72
2021/04/07 00:25:33;;;;;;;13.43;1.70;;;;;;;-144.99;92.20;52342.09;5064441;28;20657;-74
2021/04/07 00:28:02;;;;;;;10.67;2.40;;;;;;;-144.99;92.21;52391.03;5088650;28;21237;-74
2021/04/07 00:30:30;;;;;;;7.57;1.33;;;;;;;-144.99;92.03;52325.81;5085965;28;20624;-72
2021/04/07 00:32:57;;;;;;;6.67;1.53;;;;;;;-144.99;92.07;52368.59;5092835;28;20610;-73
2021/04/07 00:35:23;;;;;;;11.93;2.53;;;;;;;-144.99;91.88;52350.25;5091824;28;20621;-77
2021/04/07 00:37:50;;;;;;;11.37;2.03;;;;;;;-144.99;91.95;52362.50;5080614;28;20658;-73
2021/04/07 00:40:17;;;;;;;11.20;2.47;;;;;;;-144.99;91.89;52354.34;5091597;28;20671;-75
2021/04/07 00:42:46;;;;;;;9.77;1.97;;;;;;;-144.99;92.10;52380.84;5092081;28;20657;-72
2021/04/07 00:45:13;;;;;;;7.40;1.50;;;;;;;-144.99;92.42;52415.47;5091326;28;20622;-72
2021/04/07 00:47:39;;;;;;;7.50;2.53;;;;;;;-144.99;92.58;52352.28;5087657;28;21210;-71
2021/04/07 00:50:07;;;;;;;10.47;2.10;;;;;;;-144.99;92.85;52395.09;5084815;28;20618;-71
2021/04/07 00:52:33;;;;;;;3.80;2.03;;;;;;;-144.99;93.17;52342.09;5091181;28;20627;-72
2021/04/07 00:55:01;;;;;;;6.43;1.67;;;;;;;-144.99;93.40;52378.78;5088423;28;21151;-72
2021/04/07 00:57:28;;;;;;;8.27;2.07;;;;;;;-144.99;93.47;52362.50;5089515;28;20661;-70
2021/04/07 00:59:55;;;;;;;10.00;2.70;;;;;;;-144.99;93.47;52403.25;5082798;28;20833;-72
2021/04/07 01:02:21;;;;;;;9.33;2.07;;;;;;;-144.99;93.76;52374.72;5091672;28;20647;-75
2021/04/07 01:04:48;;;;;;;14.60;4.03;;;;;;;-144.99;93.74;52370.63;5091651;28;20606;-73
2021/04/07 01:07:14;;;;;;;11.03;3.23;;;;;;;-144.99;93.63;52378.78;5089952;28;20668;-72
2021/04/07 01:09:41;;;;;;;11.93;2.40;;;;;;;-144.99;93.69;52382.88;5090634;28;20984;-75
2021/04/07 01:12:09;;;;;;;20.50;2.37;;;;;;;-144.99;93.87;52346.19;5080954;28;20607;-70
2021/04/07 01:14:36;;;;;;;19.20;3.73;;;;;;;-144.99;93.85;52405.28;5091008;28;20622;-72
2021/04/07 01:17:05;;;;;;;12.10;2.73;;;;;;;-144.99;93.84;52374.72;5090214;28;20670;-74
2021/04/07 01:19:31;;;;;;;13.17;2.47;;;;;;;-144.99;93.91;52358.41;5084803;28;20631;-73
2021/04/07 01:21:58;;;;;;;12.47;2.30;;;;;;;-144.99;93.78;52401.22;5087122;28;20998;-70
2021/04/07 01:24:25;;;;;;;7.03;1.87;;;;;;;-144.99;93.69;52370.63;5079845;28;20647;-70
2021/04/07 01:26:52;;;;;;;14.00;5.73;;;;;;;-144.99;93.61;52358.41;5083315;28;20699;-71
2021/04/07 01:29:18;;;;;;;3.50;1.50;;;;;;;-144.99;93.54;52386.94;5085806;28;20635;-73
2021/04/07 01:31:47;;;;;;;9.83;2.87;;;;;;;-144.99;93.33;52338.03;5086554;28;20610;-73
2021/04/07 01:34:18;;;;;;;11.00;2.63;;;;;;;-144.99;93.24;52358.41;5091017;28;20611;-74
2021/04/07 01:36:44;;;;;;;12.83;2.40;;;;;;;-144.99;92.96;52376.75;5090506;28;20699;-72
2021/04/07 01:39:10;;;;;;;14.67;2.37;;;;;;;-144.99;93.13;52407.31;5089928;28;20673;-71
2021/04/07 01:41:38;;;;;;;14.07;4.07;;;;;;;-144.99;93.12;52350.25;5082342;28;20749;-73
2021/04/07 01:44:05;;;;;;;12.50;2.77;;;;;;;-144.99;93.17;52354.34;5091459;28;20650;-72
2021/04/07 01:46:32;;;;;;;10.50;2.10;;;;;;;-144.99;93.14;52342.09;5090257;28;21283;-73
2021/04/07 01:48:59;;;;;;;5.77;2.23;;;;;;;-144.99;93.29;52362.50;5088742;28;20638;-71
2021/04/07 01:51:25;;;;;;;7.97;2.53;;;;;;;-144.99;93.17;52386.94;5084407;28;20623;-71
2021/04/07 01:53:59;;;;;;;7.47;2.03;;;;;;;-144.99;93.28;52382.88;5086840;28;20610;-70
2021/04/07 01:56:25;;;;;;;5.87;3.13;;;;;;;-144.99;93.38;52358.41;5089638;28;20645;-70
2021/04/07 01:59:01;;;;;;;8.20;2.67;;;;;;;-144.99;93.59;52395.09;5089076;28;20632;-72
2021/04/07 02:01:27;;;;;;;7.93;2.50;;;;;;;-144.99;93.69;52358.41;5084220;28;20633;-72
2021/04/07 02:03:53;;;;;;;6.80;2.17;;;;;;;-144.99;93.68;52378.78;5080983;28;20677;-69
2021/04/07 02:06:19;;;;;;;10.77;1.90;;;;;;;-144.99;93.55;52370.63;5089410;28;20715;-74
2021/04/07 02:08:45;;;;;;;9.57;2.50;;;;;;;-144.99;93.76;52366.56;5089682;28;20626;-71
2021/04/07 02:11:11;;;;;;;6.17;2.20;;;;;;;-144.99;93.96;52376.75;5086319;28;21015;-71
2021/04/07 02:13:37;;;;;;;12.40;3.10;;;;;;;-144.99;94.34;52374.72;5085535;28;20625;-74
2021/04/07 02:16:11;;;;;;;8.23;2.33;;;;;;;-144.99;94.79;52388.97;5089652;28;20669;-73
2021/04/07 02:18:37;;;;;;;4.77;1.50;;;;;;;-144.99;95.10;52374.72;5089619;28;21037;-72
2021/04/07 02:21:03;;;;;;;15.83;3.17;;;;;;;-144.99;95.36;52366.56;5081522;28;21217;-74
2021/04/07 02:23:29;;;;;;;7.40;1.93;;;;;;;-144.99;95.57;52427.72;5083529;28;21229;-75
2021/04/07 02:25:55;;;;;;;17.07;2.73;;;;;;;-144.99;95.71;52358.41;5086651;28;20675;-75
2021/04/07 02:28:21;;;;;;;7.47;1.83;;;;;;;-144.99;95.85;52403.25;5082872;28;20206;-75
2021/04/07 02:30:51;;;;;;;14.23;2.67;;;;;;;-144.99;95.86;52358.41;5075915;28;20757;-75
2021/04/07 02:33:18;;;;;;;10.63;2.97;;;;;;;-144.99;95.75;52395.09;5089757;28;20713;-73
2021/04/07 02:35:44;;;;;;;11.87;3.07;;;;;;;-144.99;95.72;52378.78;5089692;28;20684;-72
2021/04/07 02:38:10;;;;;;;13.80;3.00;;;;;;;-144.99;95.79;52354.34;5090502;28;20981;-72
2021/04/07 02:40:36;;;;;;;13.97;2.23;;;;;;;-144.99;95.80;52380.84;5090512;28;20621;-77
2021/04/07 02:43:03;;;;;;;15.77;2.47;;;;;;;-144.99;95.80;52338.03;5080704;28;20626;-75
2021/04/07 02:45:28;;;;;;;9.03;3.10;;;;;;;-144.99;95.90;52370.63;5077443;28;20671;-74
2021/04/07 02:47:54;;;;;;;9.40;2.47;;;;;;;-144.99;95.67;52407.31;5088575;28;21194;-74
2021/04/07 02:50:21;;;;;;;7.33;1.97;;;;;;;-144.99;95.58;52366.56;5090324;28;20618;-75
2021/04/07 02:52:47;;;;;;;9.43;3.73;;;;;;;-144.99;95.60;52370.63;5078543;28;20217;-71
2021/04/07 02:55:14;;;;;;;10.00;3.43;;;;;;;-144.99;95.46;52391.03;5077304;28;20672;-71
2021/04/07 02:57:40;;;;;;;7.90;2.80;;;;;;;-144.99;95.23;52382.88;5080486;28;21242;-73
2021/04/07 03:00:07;;;;;;;11.97;2.13;;;;;;;-144.99;95.29;52382.88;5089506;28;20733;-73
2021/04/07 03:02:33;;;;;;;14.20;2.50;;;;;;;-144.99;95.39;52415.47;5089501;28;20222;-72
2021/04/07 03:05:02;;;;;;;9.57;3.93;;;;;;;-144.99;95.49;52384.91;5089346;28;21144;-71
2021/04/07 03:07:29;;;;;;;9.87;2.50;;;;;;;-144.99;95.52;52372.69;5088830;28;20220;-72
2021/04/07 03:09:55;;;;;;;6.20;2.53;;;;;;;-144.99;95.44;52323.75;5087539;28;20702;-75
2021/04/07 03:12:22;;;;;;;7.60;3.43;;;;;;;-144.99;95.75;52395.09;5077680;28;20654;-74
2021/04/07 03:14:48;;;;;;;13.77;3.17;;;;;;;-144.99;95.86;52405.28;5089275;28;20220;-75
2021/04/07 03:17:14;;;;;;;12.90;2.37;;;;;;;-144.99;95.81;52374.72;5088058;28;20649;-72
2021/04/07 03:19:40;;;;;;;11.80;3.83;;;;;;;-144.99;95.99;52423.63;5085012;28;20986;-72
2021/04/07 03:22:06;;;;;;;10.27;2.33;;;;;;;-144.99;96.10;52386.94;5084274;28;21181;-71
2021/04/07 03:24:33;;;;;;;11.43;3.07;;;;;;;-144.99;96.01;52393.06;5082887;28;20622;-72
2021/04/07 03:26:59;;;;;;;20.03;4.33;;;;;;;-144.99;95.96;52378.78;5088390;28;20220;-76
2021/04/07 03:29:25;;;;;;;12.20;3.97;;;;;;;-144.99;95.86;52395.09;5083638;28;20706;-76
2021/04/07 03:31:52;;;;;;;8.90;2.20;;;;;;;-144.99;95.56;52366.56;5086801;28;21210;-76
2021/04/07 03:34:18;;;;;;;8.20;1.77;;;;;;;-144.99;95.46;52354.34;5088753;28;20665;-74
2021/04/07 03:36:44;;;;;;;11.13;2.77;;;;;;;-144.99;95.53;52382.88;5088029;28;20650;-74
2021/04/07 03:39:10;;;;;;;9.13;2.10;;;;;;;-144.99;95.71;52376.75;5086247;28;21258;-76
2021/04/07 03:41:36;;;;;;;16.40;3.00;;;;;;;-144.99;95.70;52382.88;5085067;28;20212;-76
2021/04/07 03:44:03;;;;;;;6.73;2.20;;;;;;;-144.99;95.88;52374.72;5080924;28;20694;-73
2021/04/07 03:46:29;;;;;;;8.00;1.97;;;;;;;-144.99;95.84;52407.31;5088759;28;21242;-70
2021/04/07 03:48:54;;;;;;;16.50;2.13;;;;;;;-144.99;95.92;52358.41;5088934;28;20657;-73
2021/04/07 03:51:20;;;;;;;8.13;2.73;;;;;;;-144.99;96.15;52386.94;5080888;28;20915;-73
2021/04/07 03:53:47;;;;;;;9.43;3.43;;;;;;;-144.99;96.52;52374.72;5074303;28;20235;-74
2021/04/07 03:56:13;;;;;;;14.70;2.47;;;;;;;-144.99;96.77;52378.78;5089324;28;21320;-72
2021/04/07 03:58:40;;;;;;;16.20;3.27;;;;;;;-144.99;96.96;52399.19;5091576;28;20629;-72
2021/04/07 04:01:06;;;;;;;8.50;2.80;;;;;;;-144.99;97.18;52350.25;5082533;28;20247;-73
2021/04/07 04:03:32;;;;;;;16.80;3.93;;;;;;;-144.99;97.57;52388.97;5092961;28;20738;-72
2021/04/07 04:05:58;;;;;;;8.97;1.87;;;;;;;-144.99;97.89;52380.84;5093012;28;20200;-74
2021/04/07 04:08:24;;;;;;;12.23;2.30;;;;;;;-144.99;97.94;52386.94;5091705;28;20960;-73
2021/04/07 04:10:50;;;;;;;9.13;2.97;;;;;;;-144.99;98.26;52362.50;5092036;28;20204;-73
2021/04/07 04:13:16;;;;;;;11.13;2.63;;;;;;;-144.99;98.28;52346.19;5072549;28;20766;-73
2021/04/07 04:15:45;;;;;;;8.80;2.03;;;;;;;-144.99;98.43;52395.09;5086962;28;20267;-72
2021/04/07 04:18:12;;;;;;;6.83;2.40;;;;;;;-144.99;98.54;52378.78;5091448;28;20219;-72
2021/04/07 04:20:38;;;;;;;10.83;2.47;;;;;;;-144.99;98.58;52411.41;5083682;28;20808;-72
2021/04/07 04:23:05;;;;;;;10.03;2.47;;;;;;;-144.99;98.67;52378.78;5090516;28;20618;-73
2021/04/07 04:25:31;;;;;;;13.30;2.50;;;;;;;-144.99;98.67;52374.72;5089592;28;20737;-73
2021/04/07 04:27:57;;;;;;;13.23;2.57;;;;;;;-144.99;98.75;52407.31;5092501;28;21199;-73
2021/04/07 04:30:25;;;;;;;9.93;2.90;;;;;;;-144.99;98.50;52358.41;5090984;28;20713;-74
2021/04/07 04:32:53;;;;;;;5.33;2.23;;;;;;;-144.99;98.47;52370.63;5086763;28;20628;-72
2021/04/07 04:35:22;;;;;;;7.83;2.43;;;;;;;-144.99;98.33;52384.91;5092816;28;20638;-71
2021/04/07 04:37:49;;;;;;;8.57;2.60;;;;;;;-144.99;98.63;52391.03;5092881;28;21236;-71
2021/04/07 04:40:16;;;;;;;16.17;3.70;;;;;;;-144.99;98.84;52395.09;5089523;28;20657;-77
2021/04/07 04:42:42;;;;;;;22.90;4.23;;;;;;;-144.99;98.77;52378.78;5091231;28;20664;-72
2021/04/07 04:45:09;;;;;;;12.30;4.73;;;;;;;-144.99;99.01;52393.06;5093443;28;20622;-71
2021/04/07 04:47:36;;;;;;;12.17;3.83;;;;;;;-144.99;99.57;52409.38;5092430;28;20645;-74
2021/04/07 04:50:05;;;;;;;16.30;3.10;;;;;;;-144.99;99.29;52370.63;5090228;28;20725;-69
2021/04/07 04:52:31;;;;;;;9.37;3.20;;;;;;;-144.99;98.82;52360.44;5091819;28;21035;-70
2021/04/07 04:55:00;;;;;;;13.97;3.37;;;;;;;-144.99;98.91;52354.34;5088562;28;20649;-72
2021/04/07 04:57:26;;;;;;;26.10;5.27;;;;;;;-144.99;99.08;52362.50;5091931;28;20642;-72
2021/04/07 04:59:52;;;;;;;15.43;2.60;;;;;;;-144.99;99.49;52403.25;5090413;28;20648;-72
2021/04/07 05:02:18;;;;;;;8.93;3.47;;;;;;;-144.99;99.50;52391.03;5082782;28;20626;-72
2021/04/07 05:04:44;;;;;;;7.77;3.00;;;;;;;-144.99;99.64;52384.91;5083460;28;20705;-71
2021/04/07 05:07:11;;;;;;;7.20;2.93;;;;;;;-144.99;100.00;52370.63;4033479;28;10000957;-71
2021/04/07 05:09:37;;;;;;;9.60;2.73;;;;;;;-144.99;100.00;52358.41;5086237;28;20676;-77
2021/04/07 05:12:03;;;;;;;12.40;3.13;;;;;;;-144.99;100.00;52391.03;5079893;28;20663;-73
2021/04/07 05:14:29;;;;;;;6.87;2.73;;;;;;;-144.99;100.00;52368.59;5088879;28;20224;-72
2021/04/07 05:16:55;;;;;;;8.47;2.37;;;;;;;-144.99;100.00;52407.31;5088584;28;20649;-73
2021/04/07 05:19:21;;;;;;;10.27;2.80;;;;;;;-144.99;100.00;52356.38;5089470;28;20694;-73
2021/04/07 05:21:47;;;;;;;8.53;2.53;;;;;;;-144.99;100.00;52405.28;5083457;28;20638;-73
2021/04/07 05:24:14;;;;;;;11.50;2.77;;;;;;;-144.99;100.00;52358.41;5085151;28;20650;-72
2021/04/07 05:26:40;;;;;;;12.53;5.93;;;;;;;-144.99;100.00;52386.94;5080295;28;20220;-72
2021/04/07 05:29:06;;;;;;;14.00;3.03;;;;;;;-144.99;100.00;52378.78;5088919;28;20644;-72
2021/04/07 05:31:33;;;;;;;19.67;4.07;;;;;;;-144.99;99.83;52350.25;5086193;28;20201;-73
2021/04/07 05:33:59;;;;;;;13.93;3.37;;;;;;;-144.99;99.74;52366.56;5080425;28;20654;-72
2021/04/07 05:36:25;;;;;;;8.97;2.37;;;;;;;-144.99;99.55;52338.03;5088393;28;20660;-72
2021/04/07 05:38:51;;;;;;;11.33;2.67;;;;;;;-144.99;99.90;52362.50;5088598;28;20215;-71
2021/04/07 05:41:18;;;;;;;7.83;3.10;;;;;;;-144.99;99.91;52395.09;5087129;28;20658;-72
2021/04/07 05:43:45;;;;;;;20.83;3.90;;;;;;;-144.99;100.00;52378.78;5087115;28;20196;-73
2021/04/07 05:46:12;;;;;;;13.27;3.50;;;;;;;-144.99;100.00;52382.88;5087054;28;20748;-73
2021/04/07 05:48:38;;;;;;;9.23;2.47;;;;;;;-144.99;100.00;52366.56;5080977;28;20231;-73
2021/04/07 05:51:05;;;;;;;9.43;2.80;;;;;;;-144.99;100.00;52364.53;5084904;28;20633;-73
2021/04/07 05:53:34;;;;;;;7.57;2.73;;;;;;;-144.99;100.00;52376.75;5089861;28;20650;-71
2021/04/07 05:56:00;;;;;;;12.90;4.63;;;;;;;-144.99;100.00;52380.84;5080516;28;20879;-71
2021/04/07 05:58:29;;;;;;;7.70;2.70;;;;;;;-144.99;100.00;52386.94;5089949;28;20786;-73
2021/04/07 06:00:55;;;;;;;8.33;3.20;;;;;;;-144.99;100.00;52395.09;5088509;28;20683;-73
2021/04/07 06:03:21;;;;;;;12.03;2.57;;;;;;;-144.99;100.00;52388.97;5087985;28;20994;-73
2021/04/07 06:05:51;;;;;;;11.33;2.97;;;;;;;-144.99;99.96;52350.25;5087361;28;21196;-74
2021/04/07 06:08:18;;;;;;;8.83;2.43;;;;;;;-144.99;99.79;52403.25;5087919;28;21033;-73
2021/04/07 06:10:46;;;;;;;5.83;2.07;;;;;;;-144.99;99.73;52391.03;5085924;28;20986;-73
2021/04/07 06:13:14;;;;;;;7.87;3.00;;;;;;;-144.99;99.82;52403.25;5077582;28;21104;-75
2021/04/07 06:15:41;;;;;;;5.73;2.03;;;;;;;-144.99;99.92;52382.88;5087516;28;20633;-73
2021/04/07 06:18:09;;;;;;;7.00;3.87;;;;;;;-144.99;99.66;52386.94;5088417;28;21218;-74
2021/04/07 06:20:37;;;;;;;8.40;2.50;;;;;;;-144.99;99.76;52378.78;5076942;28;20650;-76
2021/04/07 06:23:05;;;;;;;6.10;2.90;;;;;;;-144.99;99.79;52370.63;5083893;28;20630;-75
2021/04/07 06:25:31;;;;;;;9.60;3.13;;;;;;;-144.99;99.48;52346.19;5081451;28;20980;-73
2021/04/07 06:27:59;;;;;;;12.67;3.13;;;;;;;-144.99;99.62;52358.41;5071678;28;20638;-74
2021/04/07 06:30:41;;;;;;;5.13;2.77;;;;;;;-144.99;99.50;52364.53;5098004;22;21143;-75
2021/04/07 06:33:09;;;;;;;8.57;2.37;;;;;;;-144.99;99.39;52388.97;5064129;28;20734;-74
2021/04/07 06:35:35;;;;;;;9.87;2.87;;;;;;;-144.99;99.22;52358.41;5067473;28;20619;-75
2021/04/07 06:38:01;;;;;;;10.00;5.03;;;;;;;-144.99;99.12;52362.50;5059607;28;20694;-74
2021/04/07 06:40:28;;;;;;;5.83;2.47;;;;;;;-144.99;98.94;52344.16;5083002;28;20730;-74
2021/04/07 06:42:54;;;;;;;11.50;3.40;;;;;;;-144.99;98.92;52350.25;5078880;28;20273;-74
2021/04/07 06:45:20;;;;;;;9.80;2.13;;;;;;;-144.99;98.72;52386.94;5076768;28;20615;-74
2021/04/07 06:47:49;;;;;;;6.77;2.37;;;;;;;-144.99;98.59;52395.09;5087861;28;20654;-76
2021/04/07 06:50:16;;;;;;;8.20;1.97;;;;;;;-144.99;98.58;52391.03;5082184;28;20666;-75
2021/04/07 06:52:43;;;;;;;7.03;2.80;;;;;;;-144.99;98.46;52354.34;5081393;28;21131;-72
2021/04/07 06:55:10;;;;;;;7.90;2.37;;;;;;;-144.99;98.36;52354.34;5083283;28;20661;-72
2021/04/07 06:57:36;;;;;;;4.87;1.93;;;;;;;-144.99;98.21;52378.78;5088149;28;20636;-74
2021/04/07 07:00:06;;;;;;;8.73;2.10;;;;;;;-144.99;98.59;52382.88;5085019;28;20654;-74
2021/04/07 07:02:34;;;;;;;9.23;3.57;;;;;;;-144.99;98.68;52374.72;5080446;28;20614;-74
2021/04/07 07:05:01;;;;;;;6.53;2.23;;;;;;;-144.99;98.62;52403.25;5087915;28;20667;-75
2021/04/07 07:07:28;;;;;;;5.90;2.27;;;;;;;-144.99;98.73;52382.88;5087060;28;20618;-73
2021/04/07 07:09:55;;;;;;;6.93;2.27;;;;;;;-144.99;98.88;52380.84;5085843;28;21062;-74
2021/04/07 07:12:22;;;;;;;4.27;2.03;;;;;;;-144.99;98.70;52340.06;5078058;28;21183;-73
2021/04/07 07:14:48;;;;;;;6.20;1.83;;;;;;;-144.99;99.00;52407.31;5081213;28;20677;-75
2021/04/07 07:17:14;;;;;;;2.73;1.77;;;;;;;-144.99;98.82;52358.41;5087208;28;20678;-73
2021/04/07 07:19:49;;;;;;;6.90;3.23;;;;;;;-144.99;98.80;52358.41;5086939;28;20695;-75
2021/04/07 07:22:22;;;;;;;8.40;2.23;;;;;;;-144.99;98.53;52317.66;5090163;28;20628;-77
2021/04/07 07:24:53;;;;;;;4.77;2.30;;;;;;;-144.99;98.19;52354.34;5092897;28;20605;-73
2021/04/07 07:27:21;;;;;;;3.37;1.50;;;;;;;-144.99;98.11;52354.34;5107120;28;21043;-75
2021/04/07 07:29:55;;;;;;;4.53;2.33;;;;;;;-144.99;97.90;52321.72;5108691;28;20669;-76
2021/04/07 07:32:32;;;;;;;8.00;2.17;;;;;;;-144.99;97.84;52378.78;5091629;28;21210;-73
2021/04/07 07:35:09;;;;;;;12.17;2.20;;;;;;;-144.99;97.88;52399.19;5088953;28;20649;-76
2021/04/07 07:37:39;;;;;;;5.57;1.80;;;;;;;-144.99;97.76;52386.94;5091141;28;20629;-75
2021/04/07 07:40:20;;;;;;;10.37;2.93;;;;;;;-144.99;97.64;52354.34;5092000;28;20807;-73
2021/04/07 07:42:47;;;;;;;5.47;2.20;;;;;;;-144.99;97.38;52362.50;5090060;28;20629;-75
2021/04/07 07:45:14;;;;;;;5.53;2.27;;;;;;;-144.99;97.06;52329.88;5079993;28;20968;-75
2021/04/07 07:47:43;;;;;;;13.20;3.10;;;;;;;-144.99;97.14;52331.91;5090437;28;20644;-71
2021/04/07 07:50:12;;;;;;;14.33;6.03;;;;;;;-144.99;96.70;52342.09;5091156;28;20656;-76
2021/04/07 07:52:39;;;;;;;3.30;1.67;;;;;;;-144.99;96.62;52342.09;5087324;28;20663;-76
2021/04/07 07:55:15;;;;;;;7.03;1.63;;;;;;;-144.99;96.58;52378.78;5088154;28;20650;-73
2021/04/07 07:57:52;;;;;;;9.47;2.40;;;;;;;-144.99;96.71;52386.94;5078211;28;20629;-75
2021/04/07 08:00:19;;;;;;;5.03;2.13;;;;;;;-144.99;96.83;52354.34;5091047;28;21019;-76
2021/04/07 08:02:45;;;;;;;1.93;1.43;;;;;;;-144.99;96.75;52350.25;5086936;28;21052;-76
2021/04/07 08:05:15;;;;;;;4.37;1.30;;;;;;;-144.99;96.72;52382.88;5082068;28;20774;-74
2021/04/07 08:07:42;;;;;;;3.23;1.47;;;;;;;-144.99;96.91;52378.78;5091194;28;20626;-75
2021/04/07 08:10:09;;;;;;;11.10;1.93;;;;;;;-144.99;96.82;52352.28;5091290;28;20658;-74
2021/04/07 08:12:36;;;;;;;5.83;2.03;;;;;;;-144.99;96.84;52370.63;5090351;28;20634;-73
2021/04/07 08:15:03;;;;;;;3.60;2.23;;;;;;;-144.99;96.99;52391.03;5082658;28;20657;-74
2021/04/07 08:17:30;;;;;;;7.03;2.70;;;;;;;-144.99;96.87;52366.56;5090182;28;20626;-75
2021/04/07 08:19:59;;;;;;;6.77;2.10;;;;;;;-144.99;97.11;52354.34;5092266;28;20721;-75
2021/04/07 08:22:28;;;;;;;5.80;2.57;;;;;;;-144.99;96.85;52372.69;5089204;28;20682;-75
2021/04/07 08:24:55;;;;;;;9.17;2.20;;;;;;;-144.99;96.77;52338.03;5088083;28;21012;-75
2021/04/07 08:27:22;;;;;;;5.10;2.83;;;;;;;-144.99;96.36;52329.88;5082573;28;20613;-74
2021/04/07 08:29:49;;;;;;;4.37;1.93;;;;;;;-144.99;96.56;52374.72;5089551;28;20650;-75
2021/04/07 08:32:18;;;;;;;2.87;1.90;;;;;;;-144.99;96.57;52321.72;5089626;28;20652;-74
2021/04/07 08:34:45;;;;;;;8.10;2.53;;;;;;;-144.99;96.78;52366.56;5086968;28;20734;-72
2021/04/07 08:37:15;;;;;;;5.07;2.03;;;;;;;-144.99;97.03;52378.78;5077983;28;20641;-75
2021/04/07 08:39:45;;;;;;;6.73;2.70;;;;;;;-144.99;96.63;52315.59;5090139;28;20685;-75
2021/04/07 08:42:12;;;;;;;6.67;2.27;;;;;;;-144.99;96.29;52348.22;5089898;28;20708;-73
2021/04/07 08:44:43;;;;;;;6.60;2.17;;;;;;;-144.99;96.12;52391.03;5084845;28;20637;-76
2021/04/07 08:47:24;;;;;;;7.87;3.00;;;;;;;-144.99;96.50;52378.78;5085017;28;20618;-74
2021/04/07 08:50:01;;;;;;;5.83;2.30;;;;;;;-144.99;96.63;52370.63;5090918;28;20766;-73
2021/04/07 08:52:27;;;;;;;6.93;2.10;;;;;;;-144.99;96.64;52358.41;5087982;28;20673;-74
2021/04/07 08:54:56;;;;;;;7.03;2.57;;;;;;;-144.99;96.59;52382.88;5100891;28;20657;-74
2021/04/07 08:57:29;;;;;;;5.63;2.43;;;;;;;-144.99;96.20;52358.41;5093407;28;20622;-75
2021/04/07 08:59:55;;;;;;;6.23;2.83;;;;;;;-144.99;95.66;52346.19;5091293;28;20664;-75
2021/04/07 09:02:22;;;;;;;4.43;2.43;;;;;;;-144.99;95.68;52329.88;5088611;28;20626;-72
2021/04/07 09:05:01;;;;;;;5.37;2.17;;;;;;;-144.99;95.85;52362.50;5093469;28;20622;-74
2021/04/07 09:07:40;;;;;;;8.63;2.90;;;;;;;-144.99;95.32;52321.72;5088264;28;20622;-74
2021/04/07 09:10:17;;;;;;;11.30;2.33;;;;;;;-144.99;95.16;52370.63;5088189;28;20680;-74
2021/04/07 09:12:45;;;;;;;6.10;2.33;;;;;;;-144.99;94.33;52338.03;5084821;28;20637;-77
2021/04/07 09:15:19;;;;;;;8.40;2.60;;;;;;;-144.99;94.64;52338.03;5089732;28;20700;-76
2021/04/07 09:17:48;;;;;;;2.77;1.83;;;;;;;-144.99;94.81;52372.69;5089023;28;20633;-74
2021/04/07 09:20:37;;;;;;;5.40;2.03;;;;;;;-144.99;96.07;52391.03;5088052;28;20656;-77
2021/04/07 09:23:26;;;;;;;3.80;2.60;;;;;;;-144.99;96.43;52342.09;5079163;28;21227;-75
2021/04/07 09:25:55;;;;;;;8.60;3.20;;;;;;;-144.99;96.52;52354.34;5073008;28;20650;-76
2021/04/07 09:28:33;;;;;;;2.87;1.97;;;;;;;-144.99;96.66;52346.19;5078787;28;21254;-75
2021/04/07 09:31:06;;;;;;;11.93;3.43;;;;;;;-144.99;96.96;52321.72;5096160;28;20662;-76
2021/04/07 09:33:36;;;;;;;2.73;1.67;;;;;;;-144.99;96.45;52301.34;5107347;28;20656;-77
2021/04/07 09:36:03;;;;;;;3.97;2.30;;;;;;;-144.99;96.08;52297.25;5103673;28;20634;-77
2021/04/07 09:38:31;;;;;;;4.17;1.93;;;;;;;-144.99;95.26;52338.03;5097551;28;20690;-74
2021/04/07 09:41:08;;;;;;;4.87;1.83;;;;;;;-144.99;94.69;52333.94;5107981;28;20672;-74
2021/04/07 09:43:37;;;;;;;4.03;3.20;;;;;;;-144.99;93.00;52325.81;5109200;28;20635;-75
2021/04/07 09:46:04;;;;;;;5.60;2.00;;;;;;;-144.99;91.74;52305.41;5105399;28;20732;-77
2021/04/07 09:48:38;;;;;;;8.93;2.60;;;;;;;-144.99;88.99;52313.56;5099279;28;20617;-76
2021/04/07 09:51:18;;;;;;;5.43;2.17;;;;;;;-144.99;87.32;52309.50;5104841;28;21018;-74
2021/04/07 09:53:44;;;;;;;2.80;2.00;;;;;;;-144.99;85.82;52309.50;5099291;28;21026;-76
2021/04/07 09:56:10;;;;;;;2.93;2.03;;;;;;;-144.99;85.37;52313.56;5094397;28;20776;-76
2021/04/07 09:58:44;;;;;;;6.20;1.70;;;;;;;-144.99;84.24;52297.25;5104245;28;20618;-74
2021/04/07 10:01:12;;;;;;;5.90;2.20;;;;;;;-144.99;84.08;52289.13;5105963;28;20664;-75
2021/04/07 10:03:46;;;;;;;5.83;1.67;;;;;;;-144.99;81.90;52301.34;5099314;28;20625;-75
2021/04/07 10:06:17;;;;;;;6.67;2.07;;;;;;;-144.99;79.37;52268.72;5085624;28;20622;-74
2021/04/07 10:08:43;;;;;;;2.20;1.40;;;;;;;-144.99;80.48;52293.19;5087013;28;20652;-73
2021/04/07 10:11:09;;;;;;;4.70;2.03;;;;;;;-144.99;80.44;52297.25;5087027;28;21087;-71
2021/04/07 10:13:35;;;;;;;5.50;3.70;;;;;;;-144.99;81.61;52331.91;5079581;28;20227;-74
2021/04/07 10:16:13;;;;;;;2.53;1.90;;;;;;;-144.99;83.69;52315.59;5092085;28;20617;-76
2021/04/07 10:18:40;;;;;;;4.07;2.07;;;;;;;-144.99;85.98;52329.88;5101587;28;20683;-74
2021/04/07 10:21:13;;;;;;;3.83;2.20;;;;;;;-144.99;87.34;52329.88;5096612;28;20733;-74
2021/04/07 10:23:39;;;;;;;3.40;2.17;;;;;;;-144.99;88.74;52338.03;5099660;28;21044;-73
2021/04/07 10:26:06;;;;;;;4.90;1.93;;;;;;;-144.99;88.73;52338.03;5088436;28;20610;-73
2021/04/07 10:28:32;;;;;;;3.60;2.10;;;;;;;-144.99;88.98;52329.88;5088580;28;20618;-75
2021/04/07 10:30:58;;;;;;;5.93;2.13;;;;;;;-144.99;89.11;52329.88;5088538;28;20657;-73
2021/04/07 10:33:26;;;;;;;3.13;2.10;;;;;;;-144.99;89.26;52366.56;5082697;28;20709;-72
2021/04/07 10:35:59;;;;;;;4.77;2.70;;;;;;;-144.99;88.46;52354.34;5088359;28;20682;-75
2021/04/07 10:38:32;;;;;;;4.77;2.70;;;;;;;-144.99;89.30;52344.16;5087581;28;20638;-74
2021/04/07 10:40:59;;;;;;;4.73;2.83;;;;;;;-144.99;89.88;52321.72;5089564;28;20853;-74
2021/04/07 10:43:30;;;;;;;6.50;3.10;;;;;;;-144.99;90.81;52313.56;5087053;28;20669;-74
2021/04/07 10:45:58;;;;;;;5.70;3.90;;;;;;;-144.99;91.16;52317.66;5087659;28;20665;-75
2021/04/07 10:48:24;;;;;;;5.03;2.93;;;;;;;-144.99;91.83;52313.56;5081108;28;21136;-74
2021/04/07 10:50:50;;;;;;;6.10;3.27;;;;;;;-144.99;93.22;52346.19;5089693;28;20657;-75
2021/04/07 10:53:27;;;;;;;4.03;2.00;;;;;;;-144.99;94.39;52358.41;5082234;28;20653;-75
2021/04/07 10:55:53;;;;;;;3.60;2.10;;;;;;;-144.99;94.61;52325.81;5078155;28;20602;-75
2021/04/07 10:58:25;;;;;;;5.67;2.63;;;;;;;-144.99;94.60;52329.88;5088571;28;20628;-74
2021/04/07 11:00:51;;;;;;;6.63;1.63;;;;;;;-144.99;94.63;52321.72;5098717;28;20232;-73
2021/04/07 11:03:29;;;;;;;5.53;2.20;;;;;;;-144.99;95.71;52366.56;5105917;28;20629;-73
2021/04/07 11:05:55;;;;;;;3.87;2.63;;;;;;;-144.99;96.70;52346.19;5103336;28;20598;-74
2021/04/07 11:08:34;;;;;;;5.53;2.37;;;;;;;-144.99;98.58;52325.81;5107424;28;20622;-73
2021/04/07 11:11:00;;;;;;;4.67;2.47;;;;;;;-144.99;99.93;52321.72;5099528;28;20627;-73
2021/04/07 11:13:26;;;;;;;6.20;2.63;;;;;;;-144.99;100.00;52305.41;5090755;28;20646;-76
2021/04/07 11:15:52;;;;;;;2.33;1.63;;;;;;;-144.99;100.00;52333.94;5086198;28;20819;-76
2021/04/07 11:18:28;;;;;;;2.87;1.33;;;;;;;-144.99;99.01;52329.88;5095896;28;20634;-75